sensor_id;sensor_type;location;lat;lon;timestamp;pressure;altitude;pressure_sealevel;temperature;humidity
75420;BME280;63998;52.488;13.428;2024-03-23T00:52:09;100535.25;;;10.31;100.00
75420;BME280;63998;52.488;13.428;2024-03-23T00:54:34;100531.81;;;10.23;100.00
75420;BME280;63998;52.488;13.428;2024-03-23T00:56:59;100520.56;;;10.26;100.00
75420;BME280;63998;52.488;13.428;2024-03-23T00:59:25;100509.28;;;10.16;100.00
75420;BME280;63998;52.488;13.428;2024-03-23T01:01:53;100511.88;;;9.98;100.00
75420;BME280;63998;52.488;13.428;2024-03-23T01:04:19;100514.47;;;10.10;100.00
75420;BME280;63998;52.488;13.428;2024-03-23T01:06:44;100519.66;;;10.15;100.00
75420;BME280;63998;52.488;13.428;2024-03-23T01:09:09;100512.75;;;10.09;100.00
75420;BME280;63998;52.488;13.428;2024-03-23T01:11:36;100516.19;;;10.16;100.00
75420;BME280;63998;52.488;13.428;2024-03-23T01:14:01;100517.97;;;10.21;100.00
75420;BME280;63998;52.488;13.428;2024-03-23T01:16:27;100516.25;;;10.23;100.00
75420;BME280;63998;52.488;13.428;2024-03-23T01:18:52;100520.56;;;10.23;100.00
75420;BME280;63998;52.488;13.428;2024-03-23T01:21:20;100505.00;;;10.21;100.00
75420;BME280;63998;52.488;13.428;2024-03-23T01:23:46;100511.91;;;10.19;100.00
75420;BME280;63998;52.488;13.428;2024-03-23T01:26:11;100509.28;;;10.16;100.00
75420;BME280;63998;52.488;13.428;2024-03-23T01:28:36;100509.28;;;10.16;100.00
75420;BME280;63998;52.488;13.428;2024-03-23T01:31:02;100501.50;;;10.12;100.00
75420;BME280;63998;52.488;13.428;2024-03-23T01:33:27;100495.44;;;10.02;100.00
75420;BME280;63998;52.488;13.428;2024-03-23T01:35:52;100482.47;;;9.97;100.00
75420;BME280;63998;52.488;13.428;2024-03-23T01:38:18;100491.97;;;10.09;100.00
75420;BME280;63998;52.488;13.428;2024-03-23T01:40:43;100477.28;;;10.13;100.00
75420;BME280;63998;52.488;13.428;2024-03-23T01:43:08;100466.03;;;10.06;100.00
75420;BME280;63998;52.488;13.428;2024-03-23T01:45:34;100457.38;;;9.98;100.00
75420;BME280;63998;52.488;13.428;2024-03-23T01:48:00;100438.34;;;9.96;100.00
75420;BME280;63998;52.488;13.428;2024-03-23T01:50:26;100431.41;;;10.04;100.00
75420;BME280;63998;52.488;13.428;2024-03-23T01:52:53;100443.53;;;10.05;100.00
75420;BME280;63998;52.488;13.428;2024-03-23T01:55:19;100430.56;;;10.05;100.00
75420;BME280;63998;52.488;13.428;2024-03-23T01:57:44;100434.88;;;10.03;100.00
75420;BME280;63998;52.488;13.428;2024-03-23T02:00:10;100441.81;;;9.95;100.00
75420;BME280;63998;52.488;13.428;2024-03-23T02:02:46;100433.16;;;10.05;100.00
75420;BME280;63998;52.488;13.428;2024-03-23T02:05:12;100440.09;;;10.09;100.00
75420;BME280;63998;52.488;13.428;2024-03-23T02:07:42;100426.22;;;10.04;100.00
75420;BME280;63998;52.488;13.428;2024-03-23T02:10:08;100429.69;;;10.06;100.00
75420;BME280;63998;52.488;13.428;2024-03-23T02:12:35;100444.41;;;10.08;100.00
75420;BME280;63998;52.488;13.428;2024-03-23T02:15:01;100440.94;;;10.11;100.00
75420;BME280;63998;52.488;13.428;2024-03-23T02:17:26;100446.13;;;10.13;100.00
75420;BME280;63998;52.488;13.428;2024-03-23T02:19:51;100433.16;;;10.11;100.00
75420;BME280;63998;52.488;13.428;2024-03-23T02:22:17;100439.22;;;10.10;100.00
75420;BME280;63998;52.488;13.428;2024-03-23T02:24:42;100441.81;;;10.01;100.00
75420;BME280;63998;52.488;13.428;2024-03-23T02:27:08;100437.47;;;10.07;100.00
75420;BME280;63998;52.488;13.428;2024-03-23T02:29:33;100431.44;;;10.10;100.00
75420;BME280;63998;52.488;13.428;2024-03-23T02:31:59;100421.06;;;10.10;100.00
75420;BME280;63998;52.488;13.428;2024-03-23T02:34:24;100420.19;;;10.11;100.00
75420;BME280;63998;52.488;13.428;2024-03-23T02:36:50;100415.00;;;10.09;100.00
75420;BME280;63998;52.488;13.428;2024-03-23T02:39:15;100400.28;;;10.07;100.00
75420;BME280;63998;52.488;13.428;2024-03-23T02:41:40;100408.94;;;10.12;100.00
75420;BME280;63998;52.488;13.428;2024-03-23T02:44:06;100405.47;;;10.13;100.00
75420;BME280;63998;52.488;13.428;2024-03-23T02:46:31;100392.50;;;10.13;100.00
75420;BME280;63998;52.488;13.428;2024-03-23T02:48:57;100386.44;;;10.11;100.00
75420;BME280;63998;52.488;13.428;2024-03-23T02:51:22;100376.03;;;10.14;100.00
75420;BME280;63998;52.488;13.428;2024-03-23T02:53:47;100389.88;;;10.16;100.00
75420;BME280;63998;52.488;13.428;2024-03-23T02:56:13;100384.69;;;10.16;100.00
75420;BME280;63998;52.488;13.428;2024-03-23T02:58:41;100378.63;;;10.17;100.00
75420;BME280;63998;52.488;13.428;2024-03-23T03:01:06;100375.22;;;10.23;100.00
75420;BME280;63998;52.488;13.428;2024-03-23T03:03:32;100388.16;;;10.27;100.00
75420;BME280;63998;52.488;13.428;2024-03-23T03:05:57;100379.53;;;10.22;100.00
75420;BME280;63998;52.488;13.428;2024-03-23T03:08:23;100369.13;;;10.16;100.00
75420;BME280;63998;52.488;13.428;2024-03-23T03:10:48;100376.03;;;10.14;100.00
75420;BME280;63998;52.488;13.428;2024-03-23T03:13:13;100364.81;;;10.12;100.00
75420;BME280;63998;52.488;13.428;2024-03-23T03:15:43;100376.03;;;10.14;100.00
75420;BME280;63998;52.488;13.428;2024-03-23T03:18:08;100377.81;;;10.18;100.00
75420;BME280;63998;52.488;13.428;2024-03-23T03:20:38;100382.13;;;10.19;100.00
75420;BME280;63998;52.488;13.428;2024-03-23T03:23:04;100370.00;;;10.15;100.00
75420;BME280;63998;52.488;13.428;2024-03-23T03:25:29;100357.03;;;10.03;100.00
75420;BME280;63998;52.488;13.428;2024-03-23T03:27:55;100353.59;;;10.07;100.00
75420;BME280;63998;52.488;13.428;2024-03-23T03:30:20;100357.91;;;10.05;100.00
75420;BME280;63998;52.488;13.428;2024-03-23T03:32:46;100357.06;;;9.91;100.00
75420;BME280;63998;52.488;13.428;2024-03-23T03:35:11;100351.91;;;9.88;100.00
75420;BME280;63998;52.488;13.428;2024-03-23T03:37:37;100339.81;;;9.75;100.00
75420;BME280;63998;52.488;13.428;2024-03-23T03:40:02;100341.53;;;9.85;100.00
75420;BME280;63998;52.488;13.428;2024-03-23T03:42:28;100343.28;;;9.77;100.00
75420;BME280;63998;52.488;13.428;2024-03-23T03:44:53;100342.38;;;9.85;100.00
75420;BME280;63998;52.488;13.428;2024-03-23T03:47:19;100332.91;;;9.77;100.00
75420;BME280;63998;52.488;13.428;2024-03-23T03:49:44;100325.97;;;9.66;100.00
75420;BME280;63998;52.488;13.428;2024-03-23T03:52:10;100334.59;;;9.78;100.00
75420;BME280;63998;52.488;13.428;2024-03-23T03:54:35;100341.53;;;9.74;100.00
75420;BME280;63998;52.488;13.428;2024-03-23T03:57:00;100345.00;;;9.65;100.00
75420;BME280;63998;52.488;13.428;2024-03-23T03:59:26;100343.25;;;9.69;100.00
75420;BME280;63998;52.488;13.428;2024-03-23T04:01:51;100340.69;;;9.57;100.00
75420;BME280;63998;52.488;13.428;2024-03-23T04:04:17;100332.91;;;9.58;100.00
75420;BME280;63998;52.488;13.428;2024-03-23T04:06:43;100326.00;;;9.60;100.00
75420;BME280;63998;52.488;13.428;2024-03-23T04:09:09;100326.00;;;9.63;100.00
75420;BME280;63998;52.488;13.428;2024-03-23T04:11:35;100316.47;;;9.68;100.00
75420;BME280;63998;52.488;13.428;2024-03-23T04:14:00;100322.53;;;9.73;100.00
75420;BME280;63998;52.488;13.428;2024-03-23T04:16:27;100316.47;;;9.73;100.00
75420;BME280;63998;52.488;13.428;2024-03-23T04:18:53;100304.38;;;9.75;100.00
75420;BME280;63998;52.488;13.428;2024-03-23T04:21:19;100304.38;;;9.73;100.00
75420;BME280;63998;52.488;13.428;2024-03-23T04:23:44;100320.78;;;9.66;100.00
75420;BME280;63998;52.488;13.428;2024-03-23T04:26:09;100320.81;;;9.60;100.00
75420;BME280;63998;52.488;13.428;2024-03-23T04:28:35;100320.81;;;9.60;100.00
75420;BME280;63998;52.488;13.428;2024-03-23T04:31:04;100310.44;;;9.57;100.00
75420;BME280;63998;52.488;13.428;2024-03-23T04:33:29;100308.69;;;9.41;100.00
75420;BME280;63998;52.488;13.428;2024-03-23T04:35:55;100309.56;;;9.42;100.00
75420;BME280;63998;52.488;13.428;2024-03-23T04:38:20;100319.97;;;9.51;100.00
75420;BME280;63998;52.488;13.428;2024-03-23T04:40:54;100319.09;;;9.44;100.00
75420;BME280;63998;52.488;13.428;2024-03-23T04:43:19;100312.16;;;9.43;100.00
75420;BME280;63998;52.488;13.428;2024-03-23T04:45:44;100300.06;;;9.33;100.00
75420;BME280;63998;52.488;13.428;2024-03-23T04:48:10;100298.34;;;9.27;100.00
75420;BME280;63998;52.488;13.428;2024-03-23T04:50:35;100294.03;;;9.17;100.00
75420;BME280;63998;52.488;13.428;2024-03-23T04:53:00;100276.78;;;9.15;100.00
75420;BME280;63998;52.488;13.428;2024-03-23T04:55:26;100286.25;;;9.10;100.00
75420;BME280;63998;52.488;13.428;2024-03-23T04:57:51;100281.06;;;9.04;100.00
75420;BME280;63998;52.488;13.428;2024-03-23T05:00:16;100279.31;;;9.02;100.00
75420;BME280;63998;52.488;13.428;2024-03-23T05:02:43;100275.91;;;9.13;100.00
75420;BME280;63998;52.488;13.428;2024-03-23T05:05:11;100274.16;;;9.18;100.00
75420;BME280;63998;52.488;13.428;2024-03-23T05:07:37;100271.59;;;9.27;100.00
75420;BME280;63998;52.488;13.428;2024-03-23T05:10:03;100272.44;;;9.32;100.00
75420;BME280;63998;52.488;13.428;2024-03-23T05:12:28;100275.91;;;9.37;100.00
75420;BME280;63998;52.488;13.428;2024-03-23T05:14:53;100281.06;;;9.31;100.00
75420;BME280;63998;52.488;13.428;2024-03-23T05:17:19;100277.63;;;9.35;100.00
75420;BME280;63998;52.488;13.428;2024-03-23T05:19:44;100274.16;;;9.21;100.00
75420;BME280;63998;52.488;13.428;2024-03-23T05:22:09;100277.63;;;9.02;100.00
75420;BME280;63998;52.488;13.428;2024-03-23T05:24:35;100267.22;;;8.83;100.00
75420;BME280;63998;52.488;13.428;2024-03-23T05:27:00;100265.50;;;8.82;100.00
75420;BME280;63998;52.488;13.428;2024-03-23T05:29:26;100268.97;;;8.96;100.00
75420;BME280;63998;52.488;13.428;2024-03-23T05:31:51;100262.06;;;8.95;100.00
75420;BME280;63998;52.488;13.428;2024-03-23T05:34:17;100263.75;;;8.78;100.00
75420;BME280;63998;52.488;13.428;2024-03-23T05:36:43;100266.38;;;8.87;100.00
75420;BME280;63998;52.488;13.428;2024-03-23T05:39:08;100260.34;;;8.97;100.00
75420;BME280;63998;52.488;13.428;2024-03-23T05:41:34;100249.97;;;8.85;100.00
75420;BME280;63998;52.488;13.428;2024-03-23T05:44:01;100237.91;;;8.96;100.00
75420;BME280;63998;52.488;13.428;2024-03-23T05:46:26;100232.69;;;9.02;100.00
75420;BME280;63998;52.488;13.428;2024-03-23T05:48:52;100229.25;;;9.10;100.00
75420;BME280;63998;52.488;13.428;2024-03-23T05:51:17;100241.34;;;9.11;100.00
75420;BME280;63998;52.488;13.428;2024-03-23T05:53:43;100234.41;;;9.16;100.00
75420;BME280;63998;52.488;13.428;2024-03-23T05:56:08;100227.50;;;9.18;100.00
75420;BME280;63998;52.488;13.428;2024-03-23T05:58:34;100218.88;;;9.16;100.00
75420;BME280;63998;52.488;13.428;2024-03-23T06:01:00;100217.16;;;9.18;100.00
75420;BME280;63998;52.488;13.428;2024-03-23T06:03:26;100232.69;;;9.21;100.00
75420;BME280;63998;52.488;13.428;2024-03-23T06:05:53;100224.06;;;9.22;100.00
75420;BME280;63998;52.488;13.428;2024-03-23T06:08:18;100204.22;;;9.22;100.00
75420;BME280;63998;52.488;13.428;2024-03-23T06:10:45;100198.16;;;9.19;100.00
75420;BME280;63998;52.488;13.428;2024-03-23T06:13:11;100194.69;;;9.23;100.00
75420;BME280;63998;52.488;13.428;2024-03-23T06:15:37;100194.72;;;9.14;100.00
75420;BME280;63998;52.488;13.428;2024-03-23T06:18:03;100191.25;;;9.02;100.00
75420;BME280;63998;52.488;13.428;2024-03-23T06:20:29;100178.31;;;9.13;100.00
75420;BME280;63998;52.488;13.428;2024-03-23T06:22:54;100183.47;;;9.18;100.00
75420;BME280;63998;52.488;13.428;2024-03-23T06:25:19;100179.19;;;9.12;100.00
75420;BME280;63998;52.488;13.428;2024-03-23T06:27:45;100172.28;;;9.00;100.00
75420;BME280;63998;52.488;13.428;2024-03-23T06:30:10;100171.41;;;8.91;100.00
75420;BME280;63998;52.488;13.428;2024-03-23T06:32:36;100171.44;;;8.74;100.00
75420;BME280;63998;52.488;13.428;2024-03-23T06:35:01;100173.16;;;8.77;100.00
75420;BME280;63998;52.488;13.428;2024-03-23T06:37:33;100174.00;;;8.86;100.00
75420;BME280;63998;52.488;13.428;2024-03-23T06:39:58;100167.09;;;8.79;100.00
75420;BME280;63998;52.488;13.428;2024-03-23T06:42:23;100174.00;;;8.95;100.00
75420;BME280;63998;52.488;13.428;2024-03-23T06:44:49;100163.63;;;8.92;100.00
75420;BME280;63998;52.488;13.428;2024-03-23T06:47:14;100157.63;;;8.89;100.00
75420;BME280;63998;52.488;13.428;2024-03-23T06:49:39;100151.56;;;8.79;100.00
75420;BME280;63998;52.488;13.428;2024-03-23T06:52:05;100157.59;;;8.69;100.00
75420;BME280;63998;52.488;13.428;2024-03-23T06:54:30;100153.28;;;8.68;100.00
75420;BME280;63998;52.488;13.428;2024-03-23T06:56:55;100152.44;;;8.64;100.00
75420;BME280;63998;52.488;13.428;2024-03-23T06:59:23;100145.53;;;8.65;100.00
75420;BME280;63998;52.488;13.428;2024-03-23T07:01:54;100137.75;;;8.74;100.00
75420;BME280;63998;52.488;13.428;2024-03-23T07:04:19;100140.34;;;8.79;100.00
75420;BME280;63998;52.488;13.428;2024-03-23T07:06:45;100141.22;;;8.58;100.00
75420;BME280;63998;52.488;13.428;2024-03-23T07:09:11;100132.59;;;8.50;100.00
75420;BME280;63998;52.488;13.428;2024-03-23T07:11:36;100130.88;;;8.52;100.00
75420;BME280;63998;52.488;13.428;2024-03-23T07:14:04;100130.84;;;8.43;100.00
75420;BME280;63998;52.488;13.428;2024-03-23T07:16:30;100132.59;;;8.47;100.00
75420;BME280;63998;52.488;13.428;2024-03-23T07:18:55;100134.28;;;8.45;100.00
75420;BME280;63998;52.488;13.428;2024-03-23T07:21:21;100132.56;;;8.44;100.00
75420;BME280;63998;52.488;13.428;2024-03-23T07:23:46;100130.00;;;8.45;100.00
75420;BME280;63998;52.488;13.428;2024-03-23T07:26:12;100132.59;;;8.38;100.00
75420;BME280;63998;52.488;13.428;2024-03-23T07:28:37;100129.13;;;8.40;100.00
75420;BME280;63998;52.488;13.428;2024-03-23T07:31:04;100119.66;;;8.39;100.00
75420;BME280;63998;52.488;13.428;2024-03-23T07:33:29;100128.28;;;8.40;100.00
75420;BME280;63998;52.488;13.428;2024-03-23T07:35:55;100121.31;;;8.29;100.00
75420;BME280;63998;52.488;13.428;2024-03-23T07:38:21;100123.03;;;8.30;100.00
75420;BME280;63998;52.488;13.428;2024-03-23T07:40:47;100125.66;;;8.27;100.00
75420;BME280;63998;52.488;13.428;2024-03-23T07:43:15;100120.47;;;8.27;100.00
75420;BME280;63998;52.488;13.428;2024-03-23T07:45:40;100122.19;;;8.25;100.00
75420;BME280;63998;52.488;13.428;2024-03-23T07:48:05;100116.19;;;8.37;100.00
75420;BME280;63998;52.488;13.428;2024-03-23T07:50:31;100112.72;;;8.27;100.00
75420;BME280;63998;52.488;13.428;2024-03-23T07:52:57;100114.47;;;8.35;100.00
75420;BME280;63998;52.488;13.428;2024-03-23T07:55:22;100117.00;;;8.19;100.00
75420;BME280;63998;52.488;13.428;2024-03-23T07:57:47;100119.53;;;8.06;100.00
75420;BME280;63998;52.488;13.428;2024-03-23T08:00:13;100104.88;;;8.06;100.00
75420;BME280;63998;52.488;13.428;2024-03-23T08:02:41;100098.00;;;8.17;100.00
75420;BME280;63998;52.488;13.428;2024-03-23T08:05:06;100104.91;;;8.21;100.00
75420;BME280;63998;52.488;13.428;2024-03-23T08:07:33;100104.91;;;8.12;100.00
75420;BME280;63998;52.488;13.428;2024-03-23T08:09:58;100112.69;;;8.23;100.00
75420;BME280;63998;52.488;13.428;2024-03-23T08:12:24;100105.78;;;8.22;100.00
75420;BME280;63998;52.488;13.428;2024-03-23T08:14:49;100094.59;;;8.24;100.00
75420;BME280;63998;52.488;13.428;2024-03-23T08:17:15;100093.72;;;8.24;100.00
75420;BME280;63998;52.488;13.428;2024-03-23T08:19:40;100091.13;;;8.10;100.00
75420;BME280;63998;52.488;13.428;2024-03-23T08:22:05;100083.34;;;8.04;100.00
75420;BME280;63998;52.488;13.428;2024-03-23T08:24:31;100077.31;;;8.01;100.00
75420;BME280;63998;52.488;13.428;2024-03-23T08:26:56;100085.06;;;8.05;100.00
75420;BME280;63998;52.488;13.428;2024-03-23T08:29:21;100078.16;;;7.89;100.00
75420;BME280;63998;52.488;13.428;2024-03-23T08:31:47;100080.75;;;7.98;100.00
75420;BME280;63998;52.488;13.428;2024-03-23T08:34:12;100073.88;;;8.09;100.00
75420;BME280;63998;52.488;13.428;2024-03-23T08:36:37;100085.06;;;8.01;100.00
75420;BME280;63998;52.488;13.428;2024-03-23T08:39:03;100082.47;;;7.96;100.00
75420;BME280;63998;52.488;13.428;2024-03-23T08:41:28;100080.69;;;7.80;100.00
75420;BME280;63998;52.488;13.428;2024-03-23T08:43:53;100085.88;;;7.77;100.00
75420;BME280;63998;52.488;13.428;2024-03-23T08:46:18;100084.19;;;7.88;100.00
75420;BME280;63998;52.488;13.428;2024-03-23T08:48:47;100082.44;;;7.78;100.00
75420;BME280;63998;52.488;13.428;2024-03-23T08:51:15;100079.81;;;7.69;100.00
75420;BME280;63998;52.488;13.428;2024-03-23T08:53:41;100078.91;;;7.57;100.00
75420;BME280;63998;52.488;13.428;2024-03-23T08:56:07;100082.34;;;7.56;100.00
75420;BME280;63998;52.488;13.428;2024-03-23T08:58:34;100085.84;;;7.65;100.00
75420;BME280;63998;52.488;13.428;2024-03-23T09:01:04;100079.78;;;7.58;100.00
75420;BME280;63998;52.488;13.428;2024-03-23T09:03:30;100083.28;;;7.74;100.00
75420;BME280;63998;52.488;13.428;2024-03-23T09:05:56;100087.56;;;7.63;100.00
75420;BME280;63998;52.488;13.428;2024-03-23T09:08:23;100082.38;;;7.53;100.00
75420;BME280;63998;52.488;13.428;2024-03-23T09:10:48;100087.50;;;7.47;100.00
75420;BME280;63998;52.488;13.428;2024-03-23T09:13:14;100095.22;;;7.44;100.00
75420;BME280;63998;52.488;13.428;2024-03-23T09:15:50;100097.75;;;7.32;100.00
75420;BME280;63998;52.488;13.428;2024-03-23T09:18:16;100094.25;;;7.18;100.00
75420;BME280;63998;52.488;13.428;2024-03-23T09:20:42;100102.84;;;7.14;100.00
75420;BME280;63998;52.488;13.428;2024-03-23T09:23:07;100095.13;;;7.23;100.00
75420;BME280;63998;52.488;13.428;2024-03-23T09:25:39;100114.09;;;7.24;100.00
75420;BME280;63998;52.488;13.428;2024-03-23T09:28:05;100113.03;;;6.90;100.00
75420;BME280;63998;52.488;13.428;2024-03-23T09:30:35;100112.19;;;6.92;100.00
75420;BME280;63998;52.488;13.428;2024-03-23T09:33:00;100104.31;;;6.75;100.00
75420;BME280;63998;52.488;13.428;2024-03-23T09:35:26;100113.78;;;6.73;100.00
75420;BME280;63998;52.488;13.428;2024-03-23T09:37:52;100112.97;;;6.83;100.00
75420;BME280;63998;52.488;13.428;2024-03-23T09:40:17;100114.81;;;7.00;100.00
75420;BME280;63998;52.488;13.428;2024-03-23T09:42:50;100125.00;;;6.81;100.00
75420;BME280;63998;52.488;13.428;2024-03-23T09:45:21;100118.16;;;6.87;100.00
75420;BME280;63998;52.488;13.428;2024-03-23T09:47:47;100123.31;;;6.87;100.00
75420;BME280;63998;52.488;13.428;2024-03-23T09:50:23;100125.06;;;6.88;100.00
75420;BME280;63998;52.488;13.428;2024-03-23T09:52:49;100126.75;;;6.84;100.00
75420;BME280;63998;52.488;13.428;2024-03-23T09:55:14;100130.13;;;6.75;100.00
75420;BME280;63998;52.488;13.428;2024-03-23T09:57:40;100152.44;;;6.70;100.00
75420;BME280;63998;52.488;13.428;2024-03-23T10:00:06;100143.81;;;6.68;100.00
75420;BME280;63998;52.488;13.428;2024-03-23T10:02:33;100161.16;;;6.84;100.00
75420;BME280;63998;52.488;13.428;2024-03-23T10:04:59;100164.47;;;6.65;100.00
75420;BME280;63998;52.488;13.428;2024-03-23T10:07:25;100177.25;;;6.53;100.00
75420;BME280;63998;52.488;13.428;2024-03-23T10:09:50;100188.44;;;6.52;100.00
75420;BME280;63998;52.488;13.428;2024-03-23T10:12:18;100184.97;;;6.52;100.00
75420;BME280;63998;52.488;13.428;2024-03-23T10:14:44;100195.34;;;6.59;100.00
75420;BME280;63998;52.488;13.428;2024-03-23T10:19:41;100200.59;;;6.65;100.00
75420;BME280;63998;52.488;13.428;2024-03-23T10:22:08;100197.28;;;6.78;100.00
75420;BME280;63998;52.488;13.428;2024-03-23T10:24:34;100189.22;;;6.46;100.00
75420;BME280;63998;52.488;13.428;2024-03-23T10:26:59;100191.75;;;6.39;100.00
75420;BME280;63998;52.488;13.428;2024-03-23T10:29:25;100193.50;;;6.46;100.00
75420;BME280;63998;52.488;13.428;2024-03-23T10:31:52;100200.44;;;6.50;100.00
75420;BME280;63998;52.488;13.428;2024-03-23T10:34:25;100196.94;;;6.45;100.00
75420;BME280;63998;52.488;13.428;2024-03-23T10:36:51;100205.44;;;6.35;100.00
75420;BME280;63998;52.488;13.428;2024-03-23T10:39:18;100202.84;;;6.33;100.00
75420;BME280;63998;52.488;13.428;2024-03-23T10:41:45;100203.78;;;6.40;100.00
75420;BME280;63998;52.488;13.428;2024-03-23T10:44:11;100202.13;;;6.48;100.00
75420;BME280;63998;52.488;13.428;2024-03-23T10:46:37;100220.16;;;6.42;100.00
75420;BME280;63998;52.488;13.428;2024-03-23T10:49:03;100220.34;;;6.63;100.00
75420;BME280;63998;52.488;13.428;2024-03-23T10:51:28;100220.38;;;6.65;100.00
75420;BME280;63998;52.488;13.428;2024-03-23T10:53:57;100216.06;;;6.68;100.00
75420;BME280;63998;52.488;13.428;2024-03-23T10:56:25;100209.22;;;6.70;100.00
75420;BME280;63998;52.488;13.428;2024-03-23T10:59:07;100210.16;;;6.80;100.00
75420;BME280;63998;52.488;13.428;2024-03-23T11:02:00;100227.38;;;6.81;100.00
75420;BME280;63998;52.488;13.428;2024-03-23T11:04:37;100219.59;;;6.73;100.00
75420;BME280;63998;52.488;13.428;2024-03-23T11:09:55;100228.25;;;6.78;100.00
75420;BME280;63998;52.488;13.428;2024-03-23T11:14:57;100233.47;;;6.88;100.00
75420;BME280;63998;52.488;13.428;2024-03-23T11:17:25;100231.75;;;6.87;100.00
75420;BME280;63998;52.488;13.428;2024-03-23T11:25:25;100217.16;;;6.90;100.00
75420;BME280;63998;52.488;13.428;2024-03-23T11:28:12;100221.44;;;6.90;100.00
75420;BME280;63998;52.488;13.428;2024-03-23T11:30:37;100235.34;;;7.04;100.00
75420;BME280;63998;52.488;13.428;2024-03-23T11:33:04;100237.03;;;7.02;100.00
75420;BME280;63998;52.488;13.428;2024-03-23T11:38:05;100238.72;;;6.98;100.00
75420;BME280;63998;52.488;13.428;2024-03-23T11:40:49;100227.59;;;7.07;100.00
75420;BME280;63998;52.488;13.428;2024-03-23T11:43:17;100235.41;;;7.13;100.00
75420;BME280;63998;52.488;13.428;2024-03-23T11:45:43;100239.72;;;7.14;100.00
75420;BME280;63998;52.488;13.428;2024-03-23T11:48:15;100240.59;;;7.19;100.00
75420;BME280;63998;52.488;13.428;2024-03-23T11:50:45;100235.44;;;7.19;100.00
75420;BME280;63998;52.488;13.428;2024-03-23T11:55:55;100251.06;;;7.34;100.00
75420;BME280;63998;52.488;13.428;2024-03-23T11:58:21;100261.41;;;7.37;100.00
75420;BME280;63998;52.488;13.428;2024-03-23T12:03:17;100249.34;;;7.36;100.00
75420;BME280;63998;52.488;13.428;2024-03-23T12:05:51;100245.09;;;7.41;100.00
75420;BME280;63998;52.488;13.428;2024-03-23T12:08:23;100242.41;;;7.32;100.00
75420;BME280;63998;52.488;13.428;2024-03-23T12:13:20;100257.94;;;7.35;100.00
75420;BME280;63998;52.488;13.428;2024-03-23T12:15:46;100264.84;;;7.36;100.00
75420;BME280;63998;52.488;13.428;2024-03-23T12:18:12;100261.34;;;7.28;100.00
75420;BME280;63998;52.488;13.428;2024-03-23T12:20:38;100257.91;;;7.31;100.00
75420;BME280;63998;52.488;13.428;2024-03-23T12:23:05;100251.91;;;7.33;100.00
75420;BME280;63998;52.488;13.428;2024-03-23T12:25:31;100242.38;;;7.23;100.00
75420;BME280;63998;52.488;13.428;2024-03-23T12:27:59;100251.00;;;7.27;100.00
75420;BME280;63998;52.488;13.428;2024-03-23T12:30:24;100242.41;;;7.32;100.00
75420;BME280;63998;52.488;13.428;2024-03-23T12:32:49;100238.06;;;7.22;100.00
75420;BME280;63998;52.488;13.428;2024-03-23T12:35:15;100242.41;;;7.32;100.00
75420;BME280;63998;52.488;13.428;2024-03-23T12:37:40;100244.19;;;7.36;100.00
75420;BME280;63998;52.488;13.428;2024-03-23T12:40:07;100238.19;;;7.42;100.00
75420;BME280;63998;52.488;13.428;2024-03-23T12:42:32;100247.69;;;7.41;100.00
75420;BME280;63998;52.488;13.428;2024-03-23T12:44:58;100236.47;;;7.41;100.00
75420;BME280;63998;52.488;13.428;2024-03-23T12:47:23;100246.81;;;7.41;100.00
75420;BME280;63998;52.488;13.428;2024-03-23T12:49:48;100241.63;;;7.42;100.00
75420;BME280;63998;52.488;13.428;2024-03-23T12:52:14;100250.28;;;7.47;100.00
75420;BME280;63998;52.488;13.428;2024-03-23T12:54:40;100243.38;;;7.46;100.00
75420;BME280;63998;52.488;13.428;2024-03-23T12:57:05;100242.56;;;7.50;100.00
75420;BME280;63998;52.488;13.428;2024-03-23T12:59:30;100237.38;;;7.50;100.00
75420;BME280;63998;52.488;13.428;2024-03-23T13:01:56;100238.25;;;7.55;100.00
75420;BME280;63998;52.488;13.428;2024-03-23T13:04:21;100242.56;;;7.55;100.00
75420;BME280;63998;52.488;13.428;2024-03-23T13:06:47;100236.53;;;7.54;100.00
75420;BME280;63998;52.488;13.428;2024-03-23T13:09:12;100231.38;;;7.57;100.00
75420;BME280;63998;52.488;13.428;2024-03-23T13:11:37;100239.19;;;7.64;100.00
75420;BME280;63998;52.488;13.428;2024-03-23T13:14:03;100228.00;;;7.65;100.00
75420;BME280;63998;52.488;13.428;2024-03-23T13:16:29;100232.31;;;7.66;100.00
75420;BME280;63998;52.488;13.428;2024-03-23T13:18:57;100237.50;;;7.66;100.00
75420;BME280;63998;52.488;13.428;2024-03-23T13:21:22;100240.91;;;7.68;100.00
75420;BME280;63998;52.488;13.428;2024-03-23T13:23:48;100243.50;;;7.63;100.00
75420;BME280;63998;52.488;13.428;2024-03-23T13:26:15;100228.00;;;7.66;100.00
75420;BME280;63998;52.488;13.428;2024-03-23T13:28:40;100237.53;;;7.79;100.00
75420;BME280;63998;52.488;13.428;2024-03-23T13:31:06;100235.06;;;7.99;100.00
75420;BME280;63998;52.488;13.428;2024-03-23T13:33:33;100231.66;;;8.11;100.00
75420;BME280;63998;52.488;13.428;2024-03-23T13:36:02;100225.75;;;8.38;100.00
75420;BME280;63998;52.488;13.428;2024-03-23T13:38:36;100217.13;;;8.57;100.00
75420;BME280;63998;52.488;13.428;2024-03-23T13:41:04;100228.34;;;8.67;100.00
75420;BME280;63998;52.488;13.428;2024-03-23T13:46:33;100220.63;;;9.05;100.00
75420;BME280;63998;52.488;13.428;2024-03-23T14:08:17;100233.41;;;9.90;100.00
75420;BME280;63998;52.488;13.428;2024-03-23T14:13:29;100232.56;;;9.88;100.00